createdAt,value
2019-05-18T00:01:54.923Z,57.40
2019-05-18T00:04:24.056Z,57.20
2019-05-18T00:06:53.166Z,57.10
2019-05-18T00:09:22.264Z,57.10
2019-05-18T00:11:51.687Z,57.20
2019-05-18T00:14:20.803Z,57.10
2019-05-18T00:16:49.940Z,57.20
2019-05-18T00:19:19.081Z,57.20
2019-05-18T00:21:48.180Z,57.40
2019-05-18T00:24:17.282Z,57.60
2019-05-18T00:26:46.394Z,57.50
2019-05-18T00:29:15.506Z,57.50
2019-05-18T00:31:44.615Z,57.90
2019-05-18T00:34:13.712Z,57.90
2019-05-18T00:36:42.816Z,58.20
2019-05-18T00:39:11.987Z,57.70
2019-05-18T00:41:41.282Z,57.80
2019-05-18T00:44:11.562Z,57.90
2019-05-18T00:46:40.669Z,58.20
2019-05-18T00:49:09.771Z,58.00
2019-05-18T00:51:38.822Z,58.40
2019-05-18T00:54:07.932Z,58.30
2019-05-18T00:56:37.050Z,58.60
2019-05-18T00:59:06.151Z,58.30
2019-05-18T01:01:35.245Z,58.20
2019-05-18T01:04:04.353Z,58.30
2019-05-18T01:06:33.457Z,58.20
2019-05-18T01:09:02.663Z,58.20
2019-05-18T01:11:31.863Z,58.20
2019-05-18T01:14:01.153Z,58.30
2019-05-18T01:16:30.260Z,58.50
2019-05-18T01:18:59.391Z,58.60
2019-05-18T01:21:28.468Z,58.60
2019-05-18T01:23:57.585Z,58.60
2019-05-18T01:26:26.690Z,58.80
2019-05-18T01:29:00.269Z,59.10
2019-05-18T01:31:29.371Z,59.00
2019-05-18T01:33:58.474Z,59.10
2019-05-18T01:36:27.550Z,59.40
2019-05-18T01:38:56.679Z,59.30
2019-05-18T01:41:25.769Z,59.40
2019-05-18T01:43:54.901Z,59.60
2019-05-18T01:46:23.980Z,59.80
2019-05-18T01:48:53.109Z,60.10
2019-05-18T01:51:22.194Z,60.10
2019-05-18T01:53:51.283Z,60.10
2019-05-18T01:56:20.398Z,60.20
2019-05-18T01:58:49.426Z,60.20
2019-05-18T02:01:18.511Z,60.60
2019-05-18T02:03:47.648Z,60.50
2019-05-18T02:06:16.733Z,60.60
2019-05-18T02:08:45.869Z,60.70
2019-05-18T02:11:14.953Z,60.90
2019-05-18T02:13:44.035Z,61.00
2019-05-18T02:16:13.120Z,61.00
2019-05-18T02:18:42.202Z,61.00
2019-05-18T02:21:11.343Z,61.10
2019-05-18T02:23:40.413Z,61.10
2019-05-18T02:26:09.508Z,61.20
2019-05-18T02:28:38.575Z,61.40
2019-05-18T02:31:07.687Z,61.30
2019-05-18T02:33:36.850Z,61.40
2019-05-18T02:36:05.978Z,61.60
2019-05-18T02:38:35.079Z,61.50
2019-05-18T02:41:04.439Z,62.20
2019-05-18T02:43:33.558Z,62.00
2019-05-18T02:46:02.673Z,62.10
2019-05-18T02:48:47.666Z,62.20
2019-05-18T02:51:02.607Z,62.30
2019-05-18T02:53:31.678Z,62.80
2019-05-18T02:56:00.774Z,63.10
2019-05-18T02:58:29.871Z,63.00
2019-05-18T03:00:58.978Z,62.90
2019-05-18T03:03:28.055Z,62.90
2019-05-18T03:05:57.164Z,63.50
2019-05-18T03:08:26.251Z,63.70
2019-05-18T03:10:55.450Z,63.20
2019-05-18T03:13:24.540Z,63.10
2019-05-18T03:15:53.626Z,63.10
2019-05-18T03:18:22.722Z,63.00
2019-05-18T03:20:53.342Z,63.00
2019-05-18T03:23:22.529Z,63.00
2019-05-18T03:25:51.667Z,63.40
2019-05-18T03:28:20.820Z,63.50
2019-05-18T03:30:49.934Z,63.80
2019-05-18T03:33:19.048Z,63.70
2019-05-18T03:35:48.148Z,63.60
2019-05-18T03:38:17.206Z,63.60
2019-05-18T03:40:46.292Z,63.70
2019-05-18T03:43:15.389Z,63.40
2019-05-18T03:45:44.512Z,63.70
2019-05-18T03:48:13.574Z,63.80
2019-05-18T03:50:43.144Z,64.00
2019-05-18T03:53:12.254Z,64.20
2019-05-18T03:55:41.357Z,64.00
2019-05-18T03:58:10.467Z,64.70
2019-05-18T04:00:39.595Z,65.30
2019-05-18T04:03:08.687Z,64.90
2019-05-18T04:05:37.815Z,65.00
2019-05-18T04:08:06.950Z,65.10
2019-05-18T04:10:36.063Z,65.00
2019-05-18T04:13:05.141Z,65.00
2019-05-18T04:15:34.373Z,65.20
2019-05-18T04:18:03.480Z,65.20
2019-05-18T04:20:32.588Z,65.50
2019-05-18T04:23:01.785Z,65.90
2019-05-18T04:25:30.912Z,66.20
2019-05-18T04:27:59.975Z,66.30
2019-05-18T04:30:29.133Z,67.20
2019-05-18T04:32:58.195Z,67.20
2019-05-18T04:35:27.319Z,67.40
2019-05-18T04:37:56.483Z,67.60
2019-05-18T04:40:25.577Z,67.30
2019-05-18T04:42:54.682Z,67.40
2019-05-18T04:45:23.806Z,67.20
2019-05-18T04:47:52.827Z,68.20
2019-05-18T04:50:22.023Z,67.90
2019-05-18T04:52:51.098Z,67.70
2019-05-18T04:55:20.304Z,68.10
2019-05-18T04:57:49.387Z,68.20
2019-05-18T05:00:18.726Z,68.40
2019-05-18T05:02:47.787Z,68.60
2019-05-18T05:05:16.897Z,68.20
2019-05-18T05:07:45.995Z,68.50
2019-05-18T05:10:15.097Z,68.50
2019-05-18T05:12:44.208Z,69.00
2019-05-18T05:15:13.396Z,68.90
2019-05-18T05:17:42.519Z,69.50
2019-05-18T05:20:19.692Z,69.70
2019-05-18T05:22:42.670Z,70.40
2019-05-18T05:25:11.879Z,70.00
2019-05-18T05:27:40.901Z,70.20
2019-05-18T05:30:10.322Z,70.70
2019-05-18T05:32:39.464Z,70.60
2019-05-18T05:35:08.593Z,70.90
2019-05-18T05:37:37.738Z,71.50
2019-05-18T05:40:06.962Z,71.40
2019-05-18T05:42:36.060Z,71.60
2019-05-18T05:45:05.761Z,71.70
2019-05-18T05:47:34.854Z,72.00
2019-05-18T05:50:04.391Z,72.60
2019-05-18T05:52:33.488Z,72.70
2019-05-18T05:55:02.611Z,73.50
2019-05-18T05:57:33.216Z,73.80
2019-05-18T06:00:02.318Z,75.20
2019-05-18T06:02:31.474Z,75.00
2019-05-18T06:05:00.576Z,75.40
2019-05-18T06:07:29.660Z,76.30
2019-05-18T06:09:58.874Z,76.50
2019-05-18T06:12:27.980Z,76.90
2019-05-18T06:14:57.107Z,77.50
2019-05-18T06:17:26.208Z,77.80
2019-05-18T06:19:55.300Z,78.30
2019-05-18T06:22:24.432Z,78.80
2019-05-18T06:24:53.505Z,79.20
2019-05-18T06:27:22.637Z,79.90
2019-05-18T06:29:51.735Z,80.50
2019-05-18T06:32:20.874Z,81.10
2019-05-18T06:34:50.051Z,81.70
2019-05-18T06:37:19.175Z,82.80
2019-05-18T06:39:48.293Z,83.20
2019-05-18T06:42:17.416Z,84.20
2019-05-18T06:44:46.505Z,84.90
2019-05-18T06:47:15.623Z,85.90
2019-05-18T06:49:44.705Z,86.50
2019-05-18T06:52:14.016Z,87.50
2019-05-18T06:54:43.217Z,88.90
2019-05-18T06:57:13.317Z,89.50
2019-05-18T06:59:42.538Z,89.80
2019-05-18T07:02:11.669Z,90.00
2019-05-18T07:04:40.755Z,90.60
2019-05-18T07:07:09.883Z,90.50
2019-05-18T07:09:38.958Z,90.60
2019-05-18T07:12:08.084Z,90.90
2019-05-18T07:14:37.211Z,90.90
2019-05-18T07:17:06.301Z,91.00
2019-05-18T07:19:35.416Z,90.80
2019-05-18T07:22:04.528Z,90.80
2019-05-18T07:24:33.617Z,91.00
2019-05-18T07:27:02.741Z,90.80
2019-05-18T07:29:31.830Z,90.50
2019-05-18T07:32:00.988Z,90.40
2019-05-18T07:34:30.092Z,90.30
2019-05-18T07:36:59.153Z,90.10
2019-05-18T07:39:28.252Z,89.50
2019-05-18T07:41:57.361Z,89.50
2019-05-18T07:44:26.530Z,89.30
2019-05-18T07:46:55.654Z,88.80
2019-05-18T07:49:24.776Z,88.90
2019-05-18T07:51:53.854Z,88.00
2019-05-18T07:54:23.108Z,88.40
2019-05-18T07:56:52.263Z,88.30
2019-05-18T07:59:21.470Z,88.70
2019-05-18T08:01:50.551Z,89.00
2019-05-18T08:04:19.682Z,89.30
2019-05-18T08:06:48.789Z,89.40
2019-05-18T08:09:17.896Z,89.10
2019-05-18T08:11:47.021Z,89.50
2019-05-18T08:14:16.168Z,89.40
2019-05-18T08:16:45.275Z,89.40
2019-05-18T08:19:14.542Z,88.90
2019-05-18T08:21:52.791Z,89.00
2019-05-18T08:24:14.588Z,89.10
2019-05-18T08:26:43.753Z,88.90
2019-05-18T08:29:12.965Z,88.90
2019-05-18T08:31:42.062Z,88.20
2019-05-18T08:34:11.197Z,87.60
2019-05-18T08:36:40.290Z,87.20
2019-05-18T08:39:09.450Z,87.00
2019-05-18T08:41:38.652Z,87.20
2019-05-18T08:44:07.785Z,86.50
2019-05-18T08:46:36.925Z,85.90
2019-05-18T08:49:06.024Z,84.70
2019-05-18T08:51:35.114Z,84.10
2019-05-18T08:54:04.266Z,83.70
2019-05-18T08:56:33.386Z,83.10
2019-05-18T08:59:02.506Z,82.40
2019-05-18T09:01:31.614Z,81.80
2019-05-18T09:04:01.556Z,81.10
2019-05-18T09:06:30.646Z,80.60
2019-05-18T09:08:59.784Z,79.70
2019-05-18T09:11:28.875Z,78.60
2019-05-18T09:13:58.047Z,78.10
2019-05-18T09:16:27.125Z,77.20
2019-05-18T09:18:56.255Z,76.90
2019-05-18T09:21:25.351Z,76.20
2019-05-18T09:23:54.499Z,75.90
2019-05-18T09:26:23.646Z,75.70
2019-05-18T09:28:52.779Z,75.00
2019-05-18T09:31:21.880Z,74.60
2019-05-18T09:33:53.040Z,74.40
2019-05-18T09:36:22.163Z,74.10
2019-05-18T09:38:51.259Z,73.70
2019-05-18T09:41:20.365Z,73.50
2019-05-18T09:43:49.444Z,73.30
2019-05-18T09:46:18.583Z,73.10
2019-05-18T09:48:47.703Z,72.80
2019-05-18T09:51:16.976Z,72.50
2019-05-18T09:53:51.496Z,72.30
2019-05-18T09:56:16.955Z,72.20
2019-05-18T09:58:45.950Z,72.00
2019-05-18T10:01:15.073Z,72.00
2019-05-18T10:03:44.181Z,71.90
2019-05-18T10:06:13.297Z,72.00
2019-05-18T10:08:42.416Z,71.70
2019-05-18T10:11:11.553Z,71.70
2019-05-18T10:13:40.631Z,71.50
2019-05-18T10:16:09.747Z,71.50
2019-05-18T10:18:38.837Z,71.10
2019-05-18T10:21:08.295Z,70.80
2019-05-18T10:23:40.073Z,70.70
2019-05-18T10:26:08.268Z,70.40
2019-05-18T10:28:37.350Z,70.40
2019-05-18T10:31:06.519Z,70.30
2019-05-18T10:33:35.647Z,70.10
2019-05-18T10:36:04.800Z,69.90
2019-05-18T10:38:33.891Z,69.60
2019-05-18T10:41:02.990Z,69.50
2019-05-18T10:43:32.290Z,69.40
2019-05-18T10:46:01.506Z,69.30
2019-05-18T10:48:30.616Z,69.10
2019-05-18T10:50:59.706Z,68.80
2019-05-18T10:53:29.271Z,68.70
2019-05-18T10:55:58.369Z,68.40
2019-05-18T10:58:27.531Z,68.00
2019-05-18T11:00:56.648Z,67.80
2019-05-18T11:03:25.820Z,67.50
2019-05-18T11:05:54.952Z,66.80
2019-05-18T11:08:24.014Z,66.20
2019-05-18T11:10:53.134Z,65.90
2019-05-18T11:13:22.232Z,65.80
2019-05-18T11:15:51.356Z,65.80
2019-05-18T11:18:20.480Z,65.60
2019-05-18T11:20:49.610Z,65.50
2019-05-18T11:23:18.694Z,65.60
2019-05-18T11:25:47.826Z,65.00
2019-05-18T11:28:16.921Z,64.20
2019-05-18T11:30:46.032Z,64.30
2019-05-18T11:33:15.137Z,64.00
2019-05-18T11:35:44.297Z,64.20
2019-05-18T11:38:13.395Z,64.10
2019-05-18T11:40:42.495Z,64.10
2019-05-18T11:43:11.573Z,64.10
2019-05-18T11:45:40.789Z,64.90
2019-05-18T11:48:09.853Z,64.80
2019-05-18T11:50:38.974Z,63.80
2019-05-18T11:53:08.055Z,63.80
2019-05-18T11:55:37.150Z,63.30
2019-05-18T11:58:06.242Z,63.10
2019-05-18T12:00:35.824Z,63.10
2019-05-18T12:03:04.979Z,62.70
2019-05-18T12:05:34.115Z,61.90
2019-05-18T12:08:03.188Z,61.20
2019-05-18T12:10:33.633Z,60.80
2019-05-18T12:13:06.516Z,60.40
2019-05-18T12:15:35.632Z,60.50
2019-05-18T12:18:04.739Z,60.50
2019-05-18T12:20:33.838Z,60.70
2019-05-18T12:23:03.041Z,60.40
2019-05-18T12:25:32.279Z,61.00
2019-05-18T12:28:01.499Z,60.90
2019-05-18T12:30:30.607Z,61.20
2019-05-18T12:32:59.733Z,61.20
2019-05-18T12:35:28.807Z,60.90
2019-05-18T12:37:58.181Z,59.80
2019-05-18T12:40:27.267Z,59.80
2019-05-18T12:42:56.412Z,60.00
2019-05-18T12:45:25.584Z,60.00
2019-05-18T12:47:54.697Z,59.40
2019-05-18T12:50:24.342Z,59.10
2019-05-18T12:52:53.548Z,58.50
2019-05-18T12:55:22.999Z,58.60
2019-05-18T12:57:52.189Z,58.80
2019-05-18T13:00:21.905Z,58.80
2019-05-18T13:02:51.179Z,58.30
2019-05-18T13:05:20.359Z,58.40
2019-05-18T13:07:49.494Z,58.40
2019-05-18T13:10:19.080Z,59.10
2019-05-18T13:12:48.412Z,58.70
2019-05-18T13:15:17.808Z,58.70
2019-05-18T13:17:46.889Z,58.60
2019-05-18T13:20:16.234Z,58.50
2019-05-18T13:22:45.317Z,58.70
2019-05-18T13:25:15.121Z,58.40
2019-05-18T13:27:44.315Z,58.90
2019-05-18T13:30:19.712Z,59.30
2019-05-18T13:32:47.335Z,59.50
2019-05-18T13:35:16.616Z,59.80
2019-05-18T13:37:45.733Z,60.20
2019-05-18T13:40:15.234Z,60.30
2019-05-18T13:42:44.400Z,60.50
2019-05-18T13:45:14.870Z,61.20
2019-05-18T13:47:43.986Z,62.10
2019-05-18T13:50:13.611Z,63.40
2019-05-18T13:52:42.895Z,64.80
2019-05-18T13:55:12.332Z,65.40
2019-05-18T13:57:41.458Z,66.20
2019-05-18T14:00:11.248Z,66.10
2019-05-18T14:02:40.382Z,66.50
2019-05-18T14:05:09.779Z,66.30
2019-05-18T14:07:39.616Z,66.00
2019-05-18T14:10:12.200Z,66.70
2019-05-18T14:12:40.155Z,67.40
2019-05-18T14:15:09.740Z,68.00
2019-05-18T14:17:38.830Z,68.90
2019-05-18T14:20:08.317Z,69.40
2019-05-18T14:22:37.453Z,70.40
2019-05-18T14:25:18.771Z,71.20
2019-05-18T14:27:37.406Z,71.90
2019-05-18T14:30:07.393Z,72.50
2019-05-18T14:32:36.473Z,72.70
2019-05-18T14:35:06.151Z,72.50
2019-05-18T14:37:35.233Z,73.10
2019-05-18T14:40:04.647Z,73.20
2019-05-18T14:42:33.741Z,72.70
2019-05-18T14:45:02.865Z,72.30
2019-05-18T14:47:31.949Z,72.10
2019-05-18T14:50:01.055Z,72.00
2019-05-18T14:52:30.157Z,72.10
2019-05-18T14:54:59.280Z,72.30
2019-05-18T14:57:28.389Z,72.50
2019-05-18T14:59:57.497Z,72.90
2019-05-18T15:02:26.553Z,72.60
2019-05-18T15:04:57.077Z,72.50
2019-05-18T15:07:26.312Z,71.70
2019-05-18T15:09:55.416Z,71.40
2019-05-18T15:12:24.525Z,71.10
2019-05-18T15:14:53.666Z,70.50
2019-05-18T15:17:22.827Z,69.70
2019-05-18T15:19:52.029Z,69.70
2019-05-18T15:22:21.130Z,68.80
2019-05-18T15:24:50.324Z,68.80
2019-05-18T15:27:19.410Z,68.30
2019-05-18T15:29:48.549Z,68.80
2019-05-18T15:32:17.633Z,69.20
2019-05-18T15:34:46.736Z,68.90
2019-05-18T15:37:15.986Z,68.70
2019-05-18T15:39:45.026Z,68.10
2019-05-18T15:42:14.117Z,68.50
2019-05-18T15:44:43.259Z,67.50
2019-05-18T15:47:12.418Z,67.90
2019-05-18T15:49:41.536Z,67.70
2019-05-18T15:52:10.654Z,67.20
2019-05-18T15:54:39.785Z,67.10
2019-05-18T15:57:08.918Z,67.70
2019-05-18T15:59:38.021Z,68.60
2019-05-18T16:02:07.182Z,68.10
2019-05-18T16:04:36.333Z,68.70
2019-05-18T16:07:05.463Z,68.60
2019-05-18T16:09:34.582Z,69.10
2019-05-18T16:12:03.789Z,69.50
2019-05-18T16:14:32.925Z,69.40
2019-05-18T16:17:02.035Z,69.70
2019-05-18T16:19:31.184Z,69.70
2019-05-18T16:22:00.276Z,71.10
2019-05-18T16:24:29.566Z,71.00
2019-05-18T16:26:58.707Z,71.60
2019-05-18T16:29:27.795Z,71.30
2019-05-18T16:31:56.950Z,71.50
2019-05-18T16:34:26.138Z,71.50
2019-05-18T16:36:55.306Z,71.90
2019-05-18T16:39:24.437Z,72.40
2019-05-18T16:41:53.602Z,72.70
2019-05-18T16:44:22.681Z,73.00
2019-05-18T16:46:51.947Z,74.00
2019-05-18T16:49:21.025Z,73.70
2019-05-18T16:51:50.197Z,73.60
2019-05-18T16:54:19.320Z,74.20
2019-05-18T16:56:48.529Z,74.50
2019-05-18T16:59:17.622Z,74.40
2019-05-18T17:01:46.746Z,74.20
2019-05-18T17:04:15.850Z,74.30
2019-05-18T17:06:44.995Z,74.20
2019-05-18T17:09:14.122Z,74.30
2019-05-18T17:11:43.232Z,74.40
2019-05-18T17:14:12.332Z,74.50
2019-05-18T17:16:41.473Z,74.20
2019-05-18T17:19:10.673Z,74.20
2019-05-18T17:21:39.824Z,74.30
2019-05-18T17:24:08.963Z,74.00
2019-05-18T17:26:51.507Z,73.90
2019-05-18T17:29:08.948Z,74.10
2019-05-18T17:31:38.056Z,74.10
2019-05-18T17:34:07.134Z,74.20
2019-05-18T17:36:36.230Z,74.90
2019-05-18T17:39:06.451Z,74.30
2019-05-18T17:41:35.559Z,73.70
2019-05-18T17:44:04.837Z,73.70
2019-05-18T17:46:34.439Z,73.80
2019-05-18T17:49:03.563Z,73.90
2019-05-18T17:51:32.695Z,73.50
2019-05-18T17:54:01.787Z,73.30
2019-05-18T17:56:30.857Z,73.50
2019-05-18T17:58:59.996Z,73.60
2019-05-18T18:01:29.092Z,74.10
2019-05-18T18:03:58.197Z,74.00
2019-05-18T18:06:27.323Z,73.90
2019-05-18T18:08:58.551Z,74.00
2019-05-18T18:11:27.661Z,74.00
2019-05-18T18:13:56.746Z,73.80
2019-05-18T18:16:25.901Z,74.00
2019-05-18T18:18:55.116Z,74.00
2019-05-18T18:21:24.283Z,73.90
2019-05-18T18:23:55.223Z,73.70
2019-05-18T18:26:24.250Z,73.90
2019-05-18T18:28:53.363Z,73.70
2019-05-18T18:31:22.548Z,73.50
2019-05-18T18:33:51.663Z,73.70
2019-05-18T18:36:20.747Z,73.50
2019-05-18T18:38:49.847Z,73.20
2019-05-18T18:41:19.005Z,72.90
2019-05-18T18:43:48.134Z,73.10
2019-05-18T18:46:17.252Z,72.80
2019-05-18T18:48:46.387Z,72.80
2019-05-18T18:51:15.512Z,72.90
2019-05-18T18:53:44.700Z,72.80
2019-05-18T18:56:13.916Z,72.70
2019-05-18T18:58:43.065Z,72.30
2019-05-18T19:01:12.150Z,72.50
2019-05-18T19:03:41.382Z,73.10
2019-05-18T19:06:10.576Z,72.90
2019-05-18T19:08:39.685Z,73.30
2019-05-18T19:11:08.753Z,73.30
2019-05-18T19:13:37.868Z,73.60
2019-05-18T19:16:07.081Z,74.00
2019-05-18T19:18:36.191Z,73.40
2019-05-18T19:21:05.403Z,73.50
2019-05-18T19:23:34.537Z,73.70
2019-05-18T19:26:03.632Z,74.20
2019-05-18T19:28:32.800Z,73.80
2019-05-18T19:31:01.920Z,74.00
2019-05-18T19:33:31.095Z,74.00
2019-05-18T19:36:00.176Z,74.40
2019-05-18T19:38:29.328Z,73.80
2019-05-18T19:40:58.427Z,73.90
2019-05-18T19:43:27.512Z,74.00
2019-05-18T19:45:56.596Z,74.20
2019-05-18T19:48:25.721Z,74.30
2019-05-18T19:50:54.820Z,74.00
2019-05-18T19:53:23.986Z,74.20
2019-05-18T19:55:53.175Z,74.30
2019-05-18T19:58:22.301Z,74.70
2019-05-18T20:00:51.381Z,74.90
2019-05-18T20:03:20.528Z,75.00
2019-05-18T20:05:49.710Z,75.00
2019-05-18T20:08:18.818Z,74.90
2019-05-18T20:10:47.934Z,75.30
2019-05-18T20:13:17.056Z,75.30
2019-05-18T20:15:46.165Z,75.50
2019-05-18T20:18:15.305Z,75.10
2019-05-18T20:20:44.481Z,75.20
2019-05-18T20:23:13.609Z,75.20
2019-05-18T20:25:42.751Z,76.20
2019-05-18T20:28:22.936Z,75.80
2019-05-18T20:30:42.680Z,75.70
2019-05-18T20:33:11.752Z,76.00
2019-05-18T20:35:40.921Z,76.40
2019-05-18T20:38:10.019Z,76.30
2019-05-18T20:40:39.194Z,76.50
2019-05-18T20:43:08.282Z,75.90
2019-05-18T20:45:37.414Z,75.90
2019-05-18T20:48:06.496Z,76.20
2019-05-18T20:50:35.613Z,76.00
2019-05-18T20:53:04.760Z,76.00
2019-05-18T20:55:33.882Z,75.60
2019-05-18T20:58:03.047Z,75.90
2019-05-18T21:00:32.163Z,75.80
2019-05-18T21:03:01.247Z,76.00
2019-05-18T21:05:30.399Z,76.20
2019-05-18T21:07:59.469Z,76.40
2019-05-18T21:10:28.579Z,76.20
2019-05-18T21:12:57.675Z,75.70
2019-05-18T21:15:26.801Z,75.70
2019-05-18T21:17:55.910Z,76.00
2019-05-18T21:20:25.088Z,76.20
2019-05-18T21:22:54.201Z,76.90
2019-05-18T21:25:23.461Z,76.20
2019-05-18T21:27:52.662Z,76.60
2019-05-18T21:30:21.807Z,76.70
2019-05-18T21:32:50.920Z,77.20
2019-05-18T21:35:20.027Z,77.50
2019-05-18T21:37:49.140Z,77.20
2019-05-18T21:40:18.259Z,77.00
2019-05-18T21:42:47.379Z,77.60
2019-05-18T21:45:16.951Z,77.90
2019-05-18T21:47:46.052Z,78.20
2019-05-18T21:50:15.275Z,78.70
2019-05-18T21:52:44.361Z,78.80
2019-05-18T21:55:13.513Z,78.50
2019-05-18T21:57:42.676Z,78.60
2019-05-18T22:00:12.288Z,78.80
2019-05-18T22:02:41.409Z,79.00
2019-05-18T22:05:10.619Z,79.00
2019-05-18T22:07:39.636Z,79.20
2019-05-18T22:10:24.482Z,79.00
2019-05-18T22:12:40.331Z,79.00
2019-05-18T22:15:09.984Z,79.00
2019-05-18T22:17:58.103Z,79.20
2019-05-18T22:20:27.223Z,79.00
2019-05-18T22:22:56.291Z,79.10
2019-05-18T22:25:25.407Z,79.40
2019-05-18T22:27:54.517Z,79.80
2019-05-18T22:30:23.673Z,79.70
2019-05-18T22:32:52.787Z,79.70
2019-05-18T22:35:21.908Z,79.80
2019-05-18T22:37:50.965Z,80.00
2019-05-18T22:40:20.072Z,80.00
2019-05-18T22:42:49.206Z,80.40
2019-05-18T22:45:18.351Z,80.50
2019-05-18T22:47:47.412Z,80.70
2019-05-18T22:50:18.226Z,81.20
2019-05-18T22:52:47.348Z,81.20
2019-05-18T22:55:16.607Z,81.20
2019-05-18T22:57:45.720Z,80.70
2019-05-18T23:00:15.325Z,81.10
2019-05-18T23:02:44.433Z,80.90
2019-05-18T23:05:13.629Z,81.00
2019-05-18T23:07:44.778Z,81.40
2019-05-18T23:10:14.107Z,81.70
2019-05-18T23:12:44.880Z,81.80
2019-05-18T23:15:14.230Z,81.70
2019-05-18T23:17:43.314Z,81.60
2019-05-18T23:20:12.588Z,81.70
2019-05-18T23:22:41.684Z,81.80
2019-05-18T23:25:10.865Z,82.00
2019-05-18T23:27:40.045Z,82.40
2019-05-18T23:30:09.436Z,82.40
2019-05-18T23:32:38.567Z,82.00
2019-05-18T23:35:08.131Z,82.30
2019-05-18T23:37:37.187Z,82.30
2019-05-18T23:40:06.494Z,82.70
2019-05-18T23:42:35.605Z,82.50
2019-05-18T23:45:05.284Z,82.40
2019-05-18T23:47:34.395Z,82.60
2019-05-18T23:50:03.641Z,82.70
2019-05-18T23:52:32.712Z,82.80
2019-05-18T23:55:01.896Z,83.00
2019-05-18T23:57:31.170Z,83.00
